Airfield :
LOGIN :

Register | Disclaimer

   EN    FR    IT 

 










Legend :    VFR   Marginal VFR   IFR   Intensive IFR   Very Intensive IFR
Visi :
Ceiling :
>= 8 km
>= 3000ft
5 to 8 km
1000 to 3000 ft
1500m to 5 km
500 to 1000 ft
800 to 1500m
200 to 500 ft
< 800m
< 200 ft
Symbols :   Thunderstorms  Fog  Heavy snow  Heavy precipitations  Wind > 20 kt
SIGMETs :     Misc.  Thunderstorms  Icing  Turbulence  Mountain Waves  Volcanic Ashes






- Airport Elevation : 268 ft
- IATA code : BFS


EGAA - Belfast Aldergrove

CURRENT METAR :
  • 101550Z 25017KT 9999 FEW022 SCT045 06/04 Q0991

EXPIRED METARs :
  • 101520Z 26018KT 9999 -RA SCT014 BKN018 06/05 Q0991
  • 101450Z 26019KT 9999 -RA BKN019 06/05 Q0990
  • 101420Z 26014KT 9999 -RA SCT020 BKN026 07/06 Q0990
  • 101350Z 27019KT 9999 -RA BKN018 07/06 Q0989
  • 101320Z 27018KT 9999 -RA FEW006 SCT016 OVC038 08/08 Q0988 RERA

TAF TAF EGAA
Valid from the 10 at 12:00 until the 11 at 12:00 UTC


101102Z 1012/1112 21020G34KT 4000 +RA RADZ BKN008
BECMG 1012/1014 25018G28KT 9999 NSW SCT020
TEMPO 1014/1021 7000 SHRA
BECMG 1021/1024 22012KT
PROB30
TEMPO 1100/1112 21016G26KT 7000 SHRA SCT008 BKN012



MET'MAP, your aeronautical weather chart ! - Copyright ORBIFLY December 2007 - Disclaimer

ORBIFLY MET'MAP TEAM :

Programming & Development : Alexandra Zaïnal
Concept & original design : Baudouin d'Aumeries
Assistance for programming : Marc-Olivier Méhu
Technical & hardware support : Manuel Goepfert

Contact : metmap@orbifly.com




SOURCES & CREDITS :

   NOAA